createdAt,value
2023-04-29T00:00:11.367Z,2.58
2023-04-29T00:03:17.976Z,2.15
2023-04-29T00:06:21.781Z,2.60
2023-04-29T00:09:24.698Z,2.40
2023-04-29T00:12:28.583Z,2.20
2023-04-29T00:15:31.390Z,2.50
2023-04-29T00:18:34.094Z,2.38
2023-04-29T00:21:36.949Z,1.85
2023-04-29T00:24:39.591Z,2.50
2023-04-29T00:27:42.645Z,2.67
2023-04-29T00:30:45.689Z,2.60
2023-04-29T00:33:48.484Z,2.58
2023-04-29T00:36:51.167Z,2.47
2023-04-29T00:39:54.166Z,2.53
2023-04-29T00:42:57.449Z,2.73
2023-04-29T00:46:00.427Z,2.25
2023-04-29T00:49:03.928Z,2.30
2023-04-29T00:52:08.302Z,1.95
2023-04-29T00:55:13.211Z,2.50
2023-04-29T00:58:17.716Z,2.20
2023-04-29T01:01:22.008Z,2.28
2023-04-29T01:04:24.954Z,2.78
2023-04-29T01:07:48.803Z,2.47
2023-04-29T01:10:56.954Z,2.35
2023-04-29T01:14:01.104Z,2.40
2023-04-29T01:17:11.863Z,2.40
2023-04-29T01:20:16.704Z,2.55
2023-04-29T01:26:42.523Z,2.10
2023-04-29T01:30:13.138Z,2.20
2023-04-29T01:33:42.323Z,2.13
2023-04-29T01:37:04.627Z,2.42
2023-04-29T01:40:20.848Z,2.30
2023-04-29T01:43:41.352Z,2.60
2023-04-29T01:46:55.252Z,2.73
2023-04-29T01:50:04.043Z,2.30
2023-04-29T01:53:08.130Z,2.60
2023-04-29T01:56:10.988Z,2.50
2023-04-29T01:59:30.285Z,2.75
2023-04-29T02:02:53.047Z,2.53
2023-04-29T02:06:04.551Z,2.67
2023-04-29T02:09:08.333Z,2.80
2023-04-29T02:12:11.858Z,2.05
2023-04-29T02:15:14.760Z,2.35
2023-04-29T02:18:17.490Z,2.73
2023-04-29T02:21:20.271Z,2.28
2023-04-29T02:24:22.913Z,2.20
2023-04-29T02:27:26.592Z,2.40
2023-04-29T02:30:30.999Z,2.45
2023-04-29T02:33:33.838Z,2.30
2023-04-29T02:36:37.136Z,2.75
2023-04-29T02:39:40.313Z,2.92
2023-04-29T02:42:43.395Z,2.50
2023-04-29T02:45:50.832Z,2.80
2023-04-29T02:48:55.029Z,2.27
2023-04-29T02:51:58.616Z,2.40
2023-04-29T02:55:01.374Z,3.00
2023-04-29T02:58:04.510Z,2.58
2023-04-29T03:01:07.316Z,2.60
2023-04-29T03:04:10.338Z,2.50
2023-04-29T03:07:13.135Z,2.30
2023-04-29T03:10:15.871Z,2.60
2023-04-29T03:13:18.743Z,3.08
2023-04-29T03:16:22.302Z,2.78
2023-04-29T03:19:25.047Z,2.50
2023-04-29T03:22:28.477Z,2.70
2023-04-29T03:25:31.408Z,2.22
2023-04-29T03:28:53.051Z,2.70
2023-04-29T03:31:57.082Z,2.63
2023-04-29T03:35:00.074Z,2.30
2023-04-29T03:38:13.623Z,2.20
2023-04-29T03:41:17.616Z,2.65
2023-04-29T03:44:20.414Z,2.50
2023-04-29T03:47:23.124Z,2.53
2023-04-29T03:50:26.268Z,2.60
2023-04-29T03:53:29.555Z,2.30
2023-04-29T03:56:32.682Z,2.17
2023-04-29T03:59:35.716Z,2.50
2023-04-29T04:02:38.761Z,2.53
2023-04-29T04:05:42.455Z,2.60
2023-04-29T04:08:49.643Z,2.53
2023-04-29T04:12:10.279Z,2.97
2023-04-29T04:15:31.285Z,2.75
2023-04-29T04:18:36.769Z,2.50
2023-04-29T04:21:40.410Z,2.43
2023-04-29T04:24:45.727Z,3.05
2023-04-29T04:27:48.482Z,2.53
2023-04-29T04:31:02.543Z,2.80
2023-04-29T04:34:05.555Z,3.13
2023-04-29T04:37:08.974Z,2.47
2023-04-29T04:40:13.945Z,2.80
2023-04-29T04:43:36.658Z,2.72
2023-04-29T04:46:40.572Z,2.58
2023-04-29T04:49:50.237Z,2.80
2023-04-29T04:52:57.579Z,2.30
2023-04-29T04:56:18.940Z,2.55
2023-04-29T04:59:22.615Z,2.97
2023-04-29T05:02:25.573Z,2.67
2023-04-29T05:05:52.984Z,2.88
2023-04-29T05:08:55.818Z,2.40
2023-04-29T05:11:59.870Z,2.30
2023-04-29T05:15:04.681Z,2.65
2023-04-29T05:18:08.245Z,2.83
2023-04-29T05:21:15.380Z,2.45
2023-04-29T05:24:20.628Z,2.30
2023-04-29T05:27:23.660Z,2.80
2023-04-29T05:30:27.207Z,2.53
2023-04-29T05:33:30.536Z,2.55
2023-04-29T05:36:33.264Z,2.60
2023-04-29T05:39:36.308Z,2.50
2023-04-29T05:42:47.243Z,2.50
2023-04-29T05:45:50.114Z,2.70
2023-04-29T05:48:52.886Z,2.50
2023-04-29T05:52:04.205Z,2.80
2023-04-29T05:55:07.753Z,2.33
2023-04-29T05:58:12.860Z,2.90
2023-04-29T06:01:17.502Z,3.00
2023-04-29T06:04:22.501Z,2.50
2023-04-29T06:07:44.981Z,2.47
2023-04-29T06:11:08.215Z,2.60
2023-04-29T06:14:11.423Z,2.78
2023-04-29T06:17:15.207Z,3.28
2023-04-29T06:20:18.568Z,3.00
2023-04-29T06:23:22.710Z,2.97
2023-04-29T06:26:26.196Z,3.00
2023-04-29T06:29:29.420Z,2.83
2023-04-29T06:32:32.239Z,2.70
2023-04-29T06:35:39.775Z,2.50
2023-04-29T06:39:18.325Z,2.75
2023-04-29T06:42:39.473Z,2.50
2023-04-29T06:46:05.725Z,2.90
2023-04-29T06:49:14.595Z,3.00
2023-04-29T06:52:17.717Z,3.08
2023-04-29T06:55:21.171Z,2.70
2023-04-29T06:58:23.867Z,2.57
2023-04-29T07:01:26.960Z,2.42
2023-04-29T07:04:30.854Z,3.05
2023-04-29T07:07:33.677Z,2.50
2023-04-29T07:10:36.692Z,2.60
2023-04-29T07:13:39.501Z,2.27
2023-04-29T07:16:42.303Z,2.78
2023-04-29T07:19:46.571Z,2.85
2023-04-29T07:22:49.402Z,2.72
2023-04-29T07:25:52.516Z,2.78
2023-04-29T07:28:56.996Z,2.93
2023-04-29T07:32:00.178Z,2.28
2023-04-29T07:35:03.809Z,2.50
2023-04-29T07:38:06.742Z,2.47
2023-04-29T07:41:09.482Z,2.90
2023-04-29T07:44:12.217Z,2.20
2023-04-29T07:47:14.925Z,2.85
2023-04-29T07:50:17.866Z,2.22
2023-04-29T07:53:20.844Z,2.70
2023-04-29T07:56:23.888Z,2.67
2023-04-29T07:59:27.010Z,2.33
2023-04-29T08:02:29.961Z,2.33
2023-04-29T08:05:33.840Z,2.58
2023-04-29T08:08:36.905Z,2.50
2023-04-29T08:11:40.231Z,2.05
2023-04-29T08:14:43.404Z,2.33
2023-04-29T08:17:46.293Z,2.50
2023-04-29T08:20:49.735Z,2.70
2023-04-29T08:23:52.392Z,2.47
2023-04-29T08:26:55.599Z,2.50
2023-04-29T08:29:58.391Z,2.40
2023-04-29T08:33:01.356Z,2.47
2023-04-29T08:36:04.360Z,2.65
2023-04-29T08:39:07.254Z,2.60
2023-04-29T08:42:11.007Z,2.38
2023-04-29T08:45:17.527Z,2.47
2023-04-29T08:48:20.363Z,2.53
2023-04-29T08:51:23.260Z,2.42
2023-04-29T08:54:26.416Z,2.53
2023-04-29T08:57:31.369Z,2.55
2023-04-29T09:00:35.386Z,2.20
2023-04-29T09:04:02.889Z,2.50
2023-04-29T09:07:06.983Z,2.40
2023-04-29T09:10:10.236Z,2.25
2023-04-29T09:13:30.954Z,2.88
2023-04-29T09:16:33.786Z,2.27
2023-04-29T09:19:37.062Z,2.40
2023-04-29T09:22:50.329Z,2.15
2023-04-29T09:25:57.632Z,2.53
2023-04-29T09:29:14.854Z,2.55
2023-04-29T09:32:23.214Z,1.83
2023-04-29T09:35:28.253Z,2.33
2023-04-29T09:38:31.128Z,2.30
2023-04-29T09:41:34.008Z,1.90
2023-04-29T09:44:36.892Z,2.40
2023-04-29T09:47:39.764Z,1.80
2023-04-29T09:50:44.045Z,2.30
2023-04-29T09:53:46.723Z,2.17
2023-04-29T09:56:52.266Z,2.00
2023-04-29T09:59:55.658Z,2.10
2023-04-29T10:03:01.592Z,2.53
2023-04-29T10:06:06.280Z,2.17
2023-04-29T10:09:18.331Z,2.33
2023-04-29T10:12:21.459Z,2.13
2023-04-29T10:15:40.219Z,2.30
2023-04-29T10:18:49.798Z,1.97
2023-04-29T10:21:56.514Z,1.80
2023-04-29T10:25:01.674Z,2.10
2023-04-29T10:28:05.402Z,1.90
2023-04-29T10:31:09.010Z,2.40
2023-04-29T10:34:14.127Z,1.90
2023-04-29T10:37:17.760Z,1.80
2023-04-29T10:40:31.432Z,2.22
2023-04-29T10:43:34.115Z,2.08
2023-04-29T10:46:38.163Z,2.17
2023-04-29T10:49:41.006Z,2.10
2023-04-29T10:52:52.112Z,2.05
2023-04-29T10:56:11.103Z,2.10
2023-04-29T10:59:16.531Z,1.92
2023-04-29T11:02:21.062Z,1.67
2023-04-29T11:05:34.373Z,1.90
2023-04-29T11:08:40.785Z,1.85
2023-04-29T11:11:54.606Z,1.90
2023-04-29T11:15:07.982Z,2.00
2023-04-29T11:18:11.865Z,1.85
2023-04-29T11:21:15.103Z,1.90
2023-04-29T11:24:17.775Z,1.65
2023-04-29T11:27:25.342Z,1.73
2023-04-29T11:30:29.012Z,1.70
2023-04-29T11:33:33.958Z,1.77
2023-04-29T11:36:36.900Z,1.80
2023-04-29T11:39:39.740Z,1.75
2023-04-29T11:42:45.731Z,1.60
2023-04-29T11:45:49.223Z,1.98
2023-04-29T11:48:52.349Z,1.98
2023-04-29T11:51:55.149Z,1.90
2023-04-29T11:55:00.247Z,2.30
2023-04-29T11:58:04.939Z,2.25
2023-04-29T12:01:08.245Z,1.77
2023-04-29T12:04:11.635Z,2.00
2023-04-29T12:07:18.142Z,1.73
2023-04-29T12:10:21.676Z,2.03
2023-04-29T12:13:29.808Z,2.00
2023-04-29T12:16:34.263Z,1.92
2023-04-29T12:19:41.683Z,1.95
2023-04-29T12:22:44.608Z,1.60
2023-04-29T12:25:54.221Z,1.98
2023-04-29T12:29:00.362Z,1.83
2023-04-29T12:32:03.160Z,1.77
2023-04-29T12:35:06.317Z,2.15
2023-04-29T12:38:09.555Z,1.83
2023-04-29T12:41:14.650Z,1.77
2023-04-29T12:44:17.456Z,1.98
2023-04-29T12:47:21.589Z,1.80
2023-04-29T12:50:38.089Z,1.88
2023-04-29T12:53:41.063Z,1.80
2023-04-29T12:56:43.709Z,1.77
2023-04-29T12:59:46.526Z,2.20
2023-04-29T13:02:49.475Z,1.88
2023-04-29T13:05:55.044Z,1.70
2023-04-29T13:08:58.308Z,2.07
2023-04-29T13:12:02.546Z,2.05
2023-04-29T13:15:09.791Z,2.05
2023-04-29T13:18:12.612Z,1.80
2023-04-29T13:21:15.535Z,2.08
2023-04-29T13:24:21.588Z,1.90
2023-04-29T13:27:30.358Z,1.63
2023-04-29T13:30:34.801Z,1.98
2023-04-29T13:33:44.220Z,1.70
2023-04-29T13:36:47.197Z,1.60
2023-04-29T13:39:56.884Z,1.83
2023-04-29T13:43:05.931Z,1.85
2023-04-29T13:46:11.880Z,1.75
2023-04-29T13:49:27.142Z,1.90
2023-04-29T13:53:19.866Z,2.08
2023-04-29T14:02:24.754Z,2.10
2023-04-29T14:05:29.147Z,1.70
2023-04-29T14:08:32.086Z,1.77
2023-04-29T14:11:37.043Z,1.57
2023-04-29T14:14:39.913Z,1.88
2023-04-29T14:17:42.757Z,2.10
2023-04-29T14:20:46.174Z,1.83
2023-04-29T14:23:49.982Z,1.98
2023-04-29T14:26:53.531Z,1.73
2023-04-29T14:29:56.241Z,1.63
2023-04-29T14:32:59.091Z,1.90
2023-04-29T14:36:01.750Z,1.67
2023-04-29T14:39:04.713Z,1.70
2023-04-29T14:42:07.798Z,1.83
2023-04-29T14:45:10.830Z,1.85
2023-04-29T14:48:13.489Z,1.80
2023-04-29T14:51:16.530Z,1.70
2023-04-29T14:54:19.241Z,1.67
2023-04-29T14:57:22.165Z,1.87
2023-04-29T15:00:25.184Z,1.60
2023-04-29T15:03:27.962Z,1.80
2023-04-29T15:06:32.468Z,1.80
2023-04-29T15:09:35.606Z,1.50
2023-04-29T15:12:38.603Z,1.50
2023-04-29T15:15:41.589Z,1.60
2023-04-29T15:18:45.885Z,1.83
2023-04-29T15:21:48.766Z,1.92
2023-04-29T15:24:52.783Z,1.70
2023-04-29T15:27:55.984Z,1.87
2023-04-29T15:31:01.730Z,1.50
2023-04-29T15:34:04.745Z,1.88
2023-04-29T15:37:07.556Z,1.70
2023-04-29T15:40:10.798Z,1.77
2023-04-29T15:43:22.117Z,1.80
2023-04-29T15:46:25.772Z,1.70
2023-04-29T15:49:28.805Z,2.00
2023-04-29T15:52:31.697Z,1.42
2023-04-29T15:55:35.491Z,1.80
2023-04-29T15:58:38.326Z,1.23
2023-04-29T16:01:40.996Z,1.65
2023-04-29T16:04:43.775Z,1.95
2023-04-29T16:07:46.705Z,1.40
2023-04-29T16:10:52.728Z,1.90
2023-04-29T16:13:55.660Z,1.60
2023-04-29T16:16:58.522Z,1.40
2023-04-29T16:20:02.163Z,1.60
2023-04-29T16:23:05.095Z,1.80
2023-04-29T16:26:07.822Z,1.77
2023-04-29T16:29:12.547Z,1.70
2023-04-29T16:32:15.404Z,1.80
2023-04-29T16:35:18.198Z,2.08
2023-04-29T16:38:21.160Z,1.77
2023-04-29T16:41:26.201Z,1.70
2023-04-29T16:44:28.887Z,1.77
2023-04-29T16:47:31.778Z,1.35
2023-04-29T16:50:36.535Z,1.83
2023-04-29T16:53:39.377Z,1.58
2023-04-29T16:56:41.980Z,1.48
2023-04-29T16:59:45.289Z,1.70
2023-04-29T17:02:51.012Z,1.48
2023-04-29T17:05:54.106Z,1.60
2023-04-29T17:08:57.160Z,1.80
2023-04-29T17:11:59.889Z,1.65
2023-04-29T17:15:02.617Z,1.60
2023-04-29T17:18:05.921Z,1.65
2023-04-29T17:21:09.180Z,1.40
2023-04-29T17:24:12.130Z,1.83
2023-04-29T17:27:14.965Z,1.67
2023-04-29T17:30:17.740Z,1.73
2023-04-29T17:33:20.962Z,1.55
2023-04-29T17:36:23.729Z,1.95
2023-04-29T17:39:27.485Z,1.60
2023-04-29T17:42:30.570Z,1.50
2023-04-29T17:45:33.454Z,1.80
2023-04-29T17:48:36.580Z,1.92
2023-04-29T17:51:40.102Z,1.80
2023-04-29T17:54:43.683Z,1.92
2023-04-29T17:57:46.642Z,1.60
2023-04-29T18:00:50.094Z,1.50
2023-04-29T18:03:53.007Z,1.70
2023-04-29T18:06:55.909Z,2.42
2023-04-29T18:09:58.975Z,1.80
2023-04-29T18:13:03.741Z,1.95
2023-04-29T18:16:08.446Z,2.30
2023-04-29T18:19:11.466Z,2.55
2023-04-29T18:22:14.589Z,2.10
2023-04-29T18:25:17.682Z,1.90
2023-04-29T18:28:25.224Z,2.40
2023-04-29T18:31:28.521Z,2.47
2023-04-29T18:34:31.373Z,2.25
2023-04-29T18:37:34.383Z,3.00
2023-04-29T18:40:37.558Z,2.80
2023-04-29T18:43:40.660Z,2.63
2023-04-29T18:46:43.739Z,2.50
2023-04-29T18:49:48.286Z,3.05
2023-04-29T18:52:51.232Z,3.03
2023-04-29T18:55:54.154Z,2.95
2023-04-29T18:58:57.282Z,3.17
2023-04-29T19:02:01.261Z,2.90
2023-04-29T19:05:09.418Z,2.90
2023-04-29T19:08:12.975Z,2.78
2023-04-29T19:11:16.006Z,2.90
2023-04-29T19:14:20.806Z,2.97
2023-04-29T19:17:23.728Z,2.60
2023-04-29T19:20:28.108Z,2.58
2023-04-29T19:23:31.176Z,2.60
2023-04-29T19:26:35.967Z,3.03
2023-04-29T19:29:40.605Z,3.10
2023-04-29T19:32:46.702Z,2.90
2023-04-29T19:35:50.125Z,2.78
2023-04-29T19:38:53.828Z,2.60
2023-04-29T19:41:58.240Z,2.47
2023-04-29T19:45:01.432Z,2.40
2023-04-29T19:48:04.733Z,2.67
2023-04-29T19:51:09.712Z,2.47
2023-04-29T19:54:13.964Z,3.10
2023-04-29T19:57:19.975Z,2.58
2023-04-29T20:00:22.960Z,3.08
2023-04-29T20:03:26.295Z,2.40
2023-04-29T20:06:29.231Z,2.95
2023-04-29T20:09:32.533Z,2.70
2023-04-29T20:12:35.972Z,2.78
2023-04-29T20:15:38.695Z,2.67
2023-04-29T20:18:42.131Z,2.33
2023-04-29T20:21:45.236Z,2.90
2023-04-29T20:24:48.012Z,2.80
2023-04-29T20:27:50.834Z,2.70
2023-04-29T20:30:53.652Z,2.80
2023-04-29T20:33:56.806Z,2.90
2023-04-29T20:36:59.795Z,2.50
2023-04-29T20:40:02.618Z,2.60
2023-04-29T20:43:05.595Z,2.50
2023-04-29T20:46:08.450Z,2.40
2023-04-29T20:49:12.881Z,2.60
2023-04-29T20:52:16.573Z,2.70
2023-04-29T20:55:19.416Z,2.65
2023-04-29T20:58:22.168Z,2.83
2023-04-29T21:01:26.460Z,2.88
2023-04-29T21:04:31.105Z,2.50
2023-04-29T21:07:34.289Z,2.63
2023-04-29T21:10:37.561Z,2.72
2023-04-29T21:13:40.445Z,2.85
2023-04-29T21:16:43.139Z,2.45
2023-04-29T21:19:46.136Z,2.60
2023-04-29T21:22:48.911Z,2.53
2023-04-29T21:25:51.719Z,2.72
2023-04-29T21:28:54.484Z,2.55
2023-04-29T21:31:57.327Z,2.50
2023-04-29T21:35:00.703Z,2.27
2023-04-29T21:38:03.475Z,2.38
2023-04-29T21:41:06.952Z,2.78
2023-04-29T21:44:09.852Z,2.58
2023-04-29T21:47:12.709Z,2.55
2023-04-29T21:50:16.039Z,2.93
2023-04-29T21:53:18.747Z,2.20
2023-04-29T21:56:22.832Z,2.70
2023-04-29T21:59:25.962Z,2.50
2023-04-29T22:02:38.233Z,2.53
2023-04-29T22:05:41.093Z,2.40
2023-04-29T22:08:43.875Z,2.55
2023-04-29T22:11:46.674Z,2.40
2023-04-29T22:14:49.467Z,2.00
2023-04-29T22:17:52.284Z,2.30
2023-04-29T22:20:55.263Z,2.60
2023-04-29T22:24:00.435Z,2.33
2023-04-29T22:27:03.846Z,2.38
2023-04-29T22:30:08.339Z,2.28
2023-04-29T22:33:13.401Z,2.45
2023-04-29T22:36:16.132Z,2.30
2023-04-29T22:39:18.921Z,2.35
2023-04-29T22:42:22.099Z,2.40
2023-04-29T22:45:25.153Z,2.33
2023-04-29T22:48:28.762Z,1.90
2023-04-29T22:51:32.272Z,2.53
2023-04-29T22:54:35.100Z,2.28
2023-04-29T22:57:37.845Z,2.42
2023-04-29T23:00:43.259Z,2.70
2023-04-29T23:03:45.968Z,2.40
2023-04-29T23:06:48.845Z,2.17
2023-04-29T23:09:52.736Z,2.22
2023-04-29T23:12:56.088Z,2.60
2023-04-29T23:16:02.006Z,2.15
2023-04-29T23:19:04.896Z,2.63
2023-04-29T23:22:07.647Z,2.10
2023-04-29T23:25:10.410Z,2.03
2023-04-29T23:28:13.344Z,2.42
2023-04-29T23:31:16.448Z,2.60
2023-04-29T23:34:19.461Z,2.35
2023-04-29T23:37:22.223Z,2.57
2023-04-29T23:40:24.923Z,2.38
2023-04-29T23:43:28.013Z,2.80
2023-04-29T23:46:31.139Z,2.08
2023-04-29T23:49:34.126Z,2.60
2023-04-29T23:52:36.937Z,2.17
2023-04-29T23:55:39.834Z,2.55
2023-04-29T23:58:43.181Z,2.30
